sensor_id;sensor_type;location;lat;lon;timestamp;P1;durP1;ratioP1;P2;durP2;ratioP2
3225;SDS011;1625;49.884;8.666;2022-07-29T04:31:20;5.23;;;3.43;;
3225;SDS011;1625;49.884;8.666;2022-07-29T04:33:45;3.73;;;2.80;;
3225;SDS011;1625;49.884;8.666;2022-07-29T04:36:11;7.10;;;3.30;;
3225;SDS011;1625;49.884;8.666;2022-07-29T04:38:37;5.30;;;3.63;;
3225;SDS011;1625;49.884;8.666;2022-07-29T04:41:08;4.57;;;3.57;;
3225;SDS011;1625;49.884;8.666;2022-07-29T04:43:37;5.43;;;3.37;;
3225;SDS011;1625;49.884;8.666;2022-07-29T04:46:03;3.60;;;3.13;;
3225;SDS011;1625;49.884;8.666;2022-07-29T04:48:30;4.90;;;3.07;;
3225;SDS011;1625;49.884;8.666;2022-07-29T04:50:56;3.63;;;3.30;;
3225;SDS011;1625;49.884;8.666;2022-07-29T04:53:22;3.90;;;3.50;;
3225;SDS011;1625;49.884;8.666;2022-07-29T04:55:47;5.37;;;3.00;;
3225;SDS011;1625;49.884;8.666;2022-07-29T04:58:13;5.43;;;3.40;;
3225;SDS011;1625;49.884;8.666;2022-07-29T05:00:38;4.77;;;4.03;;
3225;SDS011;1625;49.884;8.666;2022-07-29T05:03:04;3.90;;;3.20;;
3225;SDS011;1625;49.884;8.666;2022-07-29T05:05:30;3.97;;;3.03;;
3225;SDS011;1625;49.884;8.666;2022-07-29T05:07:56;9.80;;;4.70;;
3225;SDS011;1625;49.884;8.666;2022-07-29T05:10:21;4.33;;;3.50;;
3225;SDS011;1625;49.884;8.666;2022-07-29T05:12:47;6.53;;;3.67;;
3225;SDS011;1625;49.884;8.666;2022-07-29T05:15:13;3.53;;;3.20;;
3225;SDS011;1625;49.884;8.666;2022-07-29T05:17:40;4.43;;;3.30;;
3225;SDS011;1625;49.884;8.666;2022-07-29T05:20:05;5.63;;;5.13;;
3225;SDS011;1625;49.884;8.666;2022-07-29T05:22:50;4.50;;;3.60;;
3225;SDS011;1625;49.884;8.666;2022-07-29T05:25:15;4.20;;;3.80;;
3225;SDS011;1625;49.884;8.666;2022-07-29T05:27:41;4.50;;;3.13;;
3225;SDS011;1625;49.884;8.666;2022-07-29T05:30:07;3.47;;;3.23;;
3225;SDS011;1625;49.884;8.666;2022-07-29T05:32:33;8.00;;;3.93;;
3225;SDS011;1625;49.884;8.666;2022-07-29T05:34:58;5.10;;;3.70;;
3225;SDS011;1625;49.884;8.666;2022-07-29T05:44:11;10.17;;;3.50;;
3225;SDS011;1625;49.884;8.666;2022-07-29T05:51:04;4.30;;;3.50;;
3225;SDS011;1625;49.884;8.666;2022-07-29T06:13:05;4.30;;;3.87;;
3225;SDS011;1625;49.884;8.666;2022-07-29T06:16:46;5.40;;;4.07;;
3225;SDS011;1625;49.884;8.666;2022-07-29T07:53:00;4.33;;;3.87;;
3225;SDS011;1625;49.884;8.666;2022-07-29T13:42:38;5.93;;;5.30;;
3225;SDS011;1625;49.884;8.666;2022-07-29T13:46:04;6.03;;;4.33;;
3225;SDS011;1625;49.884;8.666;2022-07-29T13:49:13;6.87;;;4.57;;
3225;SDS011;1625;49.884;8.666;2022-07-29T13:51:39;5.00;;;4.60;;
3225;SDS011;1625;49.884;8.666;2022-07-29T13:54:04;4.97;;;4.57;;
3225;SDS011;1625;49.884;8.666;2022-07-29T13:56:30;4.80;;;4.40;;
3225;SDS011;1625;49.884;8.666;2022-07-29T13:58:56;4.93;;;4.43;;
3225;SDS011;1625;49.884;8.666;2022-07-29T14:01:22;4.73;;;4.33;;
3225;SDS011;1625;49.884;8.666;2022-07-29T14:03:48;4.50;;;4.20;;
3225;SDS011;1625;49.884;8.666;2022-07-29T14:06:13;5.03;;;4.43;;
3225;SDS011;1625;49.884;8.666;2022-07-29T14:08:39;5.00;;;4.60;;
3225;SDS011;1625;49.884;8.666;2022-07-29T14:11:05;5.17;;;4.40;;
3225;SDS011;1625;49.884;8.666;2022-07-29T14:13:30;4.90;;;4.50;;
3225;SDS011;1625;49.884;8.666;2022-07-29T14:15:56;5.10;;;4.63;;
3225;SDS011;1625;49.884;8.666;2022-07-29T14:18:22;4.20;;;3.90;;
3225;SDS011;1625;49.884;8.666;2022-07-29T14:20:47;5.00;;;4.60;;
3225;SDS011;1625;49.884;8.666;2022-07-29T14:23:13;5.13;;;4.63;;
3225;SDS011;1625;49.884;8.666;2022-07-29T14:25:39;6.40;;;4.10;;
3225;SDS011;1625;49.884;8.666;2022-07-29T14:28:04;4.30;;;3.90;;
3225;SDS011;1625;49.884;8.666;2022-07-29T14:30:30;4.83;;;4.07;;
3225;SDS011;1625;49.884;8.666;2022-07-29T14:32:55;4.77;;;4.37;;
3225;SDS011;1625;49.884;8.666;2022-07-29T14:35:21;4.90;;;4.50;;
3225;SDS011;1625;49.884;8.666;2022-07-29T14:37:46;4.50;;;4.20;;
3225;SDS011;1625;49.884;8.666;2022-07-29T14:40:12;4.57;;;4.17;;
3225;SDS011;1625;49.884;8.666;2022-07-29T14:42:37;4.83;;;4.43;;
3225;SDS011;1625;49.884;8.666;2022-07-29T14:45:04;5.10;;;4.60;;
3225;SDS011;1625;49.884;8.666;2022-07-29T14:47:30;4.83;;;4.43;;
3225;SDS011;1625;49.884;8.666;2022-07-29T14:49:56;4.90;;;4.40;;
3225;SDS011;1625;49.884;8.666;2022-07-29T14:52:21;4.40;;;4.10;;
3225;SDS011;1625;49.884;8.666;2022-07-29T14:54:47;4.70;;;4.20;;
3225;SDS011;1625;49.884;8.666;2022-07-29T14:57:12;7.77;;;4.63;;
3225;SDS011;1625;49.884;8.666;2022-07-29T14:59:38;5.50;;;4.70;;
3225;SDS011;1625;49.884;8.666;2022-07-29T15:02:04;7.53;;;4.63;;
3225;SDS011;1625;49.884;8.666;2022-07-29T15:04:29;4.60;;;4.30;;
3225;SDS011;1625;49.884;8.666;2022-07-29T15:06:55;5.20;;;4.70;;
3225;SDS011;1625;49.884;8.666;2022-07-29T15:09:20;4.83;;;4.50;;
3225;SDS011;1625;49.884;8.666;2022-07-29T15:11:46;5.07;;;4.70;;
3225;SDS011;1625;49.884;8.666;2022-07-29T15:14:12;5.37;;;4.97;;
3225;SDS011;1625;49.884;8.666;2022-07-29T15:16:38;4.80;;;4.30;;
3225;SDS011;1625;49.884;8.666;2022-07-29T15:19:05;4.63;;;4.33;;
3225;SDS011;1625;49.884;8.666;2022-07-29T15:21:30;4.87;;;4.40;;
3225;SDS011;1625;49.884;8.666;2022-07-29T15:23:56;4.67;;;4.27;;
3225;SDS011;1625;49.884;8.666;2022-07-29T15:26:22;4.73;;;4.33;;
3225;SDS011;1625;49.884;8.666;2022-07-29T15:28:47;4.70;;;4.30;;
3225;SDS011;1625;49.884;8.666;2022-07-29T15:31:13;4.33;;;4.03;;
3225;SDS011;1625;49.884;8.666;2022-07-29T15:33:38;5.00;;;3.80;;
3225;SDS011;1625;49.884;8.666;2022-07-29T15:36:04;4.90;;;4.37;;
3225;SDS011;1625;49.884;8.666;2022-07-29T15:38:30;5.00;;;4.43;;
3225;SDS011;1625;49.884;8.666;2022-07-29T15:40:56;4.27;;;3.97;;
3225;SDS011;1625;49.884;8.666;2022-07-29T15:43:22;4.40;;;4.00;;
3225;SDS011;1625;49.884;8.666;2022-07-29T15:45:47;4.20;;;3.90;;
3225;SDS011;1625;49.884;8.666;2022-07-29T15:48:32;5.43;;;3.97;;
3225;SDS011;1625;49.884;8.666;2022-07-29T15:51:00;4.20;;;3.90;;
3225;SDS011;1625;49.884;8.666;2022-07-29T15:53:26;4.23;;;3.93;;
3225;SDS011;1625;49.884;8.666;2022-07-29T15:55:51;4.30;;;4.00;;
3225;SDS011;1625;49.884;8.666;2022-07-29T15:58:17;4.37;;;3.97;;
3225;SDS011;1625;49.884;8.666;2022-07-29T16:00:43;4.20;;;3.80;;
3225;SDS011;1625;49.884;8.666;2022-07-29T16:03:08;4.10;;;3.80;;
3225;SDS011;1625;49.884;8.666;2022-07-29T16:05:34;5.33;;;3.80;;
3225;SDS011;1625;49.884;8.666;2022-07-29T16:07:59;4.83;;;4.40;;
3225;SDS011;1625;49.884;8.666;2022-07-29T16:10:25;4.20;;;3.90;;
3225;SDS011;1625;49.884;8.666;2022-07-29T16:12:51;3.90;;;3.70;;
3225;SDS011;1625;49.884;8.666;2022-07-29T16:15:18;6.40;;;5.17;;
3225;SDS011;1625;49.884;8.666;2022-07-29T21:31:55;8.83;;;7.80;;
3225;SDS011;1625;49.884;8.666;2022-07-29T21:34:20;6.57;;;6.00;;
3225;SDS011;1625;49.884;8.666;2022-07-29T21:36:48;6.20;;;5.77;;
3225;SDS011;1625;49.884;8.666;2022-07-29T21:39:13;6.67;;;6.27;;
3225;SDS011;1625;49.884;8.666;2022-07-29T21:41:39;6.93;;;6.33;;
3225;SDS011;1625;49.884;8.666;2022-07-29T21:44:05;6.77;;;6.27;;
